Flight Track Log - Related Links

Times and Time Zones

All times are in EST time to prevent confusion due to time zone crossing. See the SWA1707 flight status page for this flight to view local times or setup timezone preferences in your user account.

Time Position Orientation Groundspeed Altitude Reporting Facility
EST Latitude Longitude Course Direction KTS MPH feet Rate Location/Type
Wed 04:00:13 PM 32.7667 -117.2500 320° Northwest 207 238 2,900  Level Southern California TRACON
Wed 04:01:13 PM 32.8047 -117.3042 310° West 233 268 5,800 3,443 Climbing Los Angeles Center
Wed 04:02:15 PM 32.8542 -117.3758 309° West 274 315 9,900 3,512 Climbing Los Angeles Center
Wed 04:03:16 PM 32.9108 -117.4536 311° West 306 352 13,000 3,268 Climbing Los Angeles Center
Wed 04:04:18 PM 32.9772 -117.5453 311° West 354 407 16,600 3,290 Climbing Los Angeles Center
Wed 04:05:00 PM 33.1032 -117.7199 320° Northwest  Level FlightAware Approximate
Wed 04:05:20 PM 33.0436 -117.6414 310° West 372 428 19,800  Level Los Angeles Center
Wed 04:06:22 PM 33.1331 -117.7561 313° West 390 449 23,500 3,122 Climbing Los Angeles Center
Wed 04:07:23 PM 33.2264 -117.8325 326° Northwest 405 466 26,200 2,585 Climbing Los Angeles Center
Wed 04:08:25 PM 33.3203 -117.9114 325° Northwest 412 474 28,800 2,488 Climbing Los Angeles Center
Wed 04:09:26 PM 33.4147 -117.9897 325° Northwest 413 475 31,300 2,683 Climbing Los Angeles Center
Wed 04:10:28 PM 33.5050 -118.0661 325° Northwest 405 466 34,300 2,613 Climbing Los Angeles Center
Wed 04:11:30 PM 33.5894 -118.1383 325° Northwest 384 442 36,700 1,951 Climbing Los Angeles Center
Wed 04:12:31 PM 33.6878 -118.2206 325° Northwest 366 421 38,300 1,220 Climbing Los Angeles Center
Wed 04:13:33 PM 33.7753 -118.2967 324° Northwest 378 435 39,200 823 Climbing Los Angeles Center
Wed 04:14:35 PM 33.8617 -118.3725 324° Northwest 383 441 40,000 390 Climbing Los Angeles Center
Wed 04:15:36 PM 33.9450 -118.4389 327° Northwest 388 447 40,000  Level Los Angeles Center
Wed 04:16:38 PM 34.0672 -118.4981 338° Northwest 395 455 40,000  Level Los Angeles Center
Wed 04:17:40 PM 34.1703 -118.5492 338° Northwest 399 459 40,000  Level Los Angeles Center
Wed 04:18:41 PM 34.2731 -118.5994 338° Northwest 399 459 40,000  Level Los Angeles Center
Wed 04:19:43 PM 34.3758 -118.6494 338° Northwest 399 459 40,000  Level Los Angeles Center
Wed 04:20:45 PM 34.4783 -118.7006 338° Northwest 398 458 40,000  Level Los Angeles Center
Wed 04:21:46 PM 34.5814 -118.7514 338° Northwest 399 459 40,000  Level Los Angeles Center
Wed 04:22:48 PM 34.6847 -118.8022 338° Northwest 401 461 40,000  Level Los Angeles Center
Wed 04:23:49 PM 34.7878 -118.8544 337° Northwest 402 463 40,000  Level Los Angeles Center
Wed 04:24:51 PM 34.8939 -118.9519 323° Northwest 400 460 40,000  Level Los Angeles Center
Wed 04:25:53 PM 34.9775 -119.0281 323° Northwest 395 455 40,000  Level Los Angeles Center
Wed 04:26:54 PM 35.0631 -119.1133 321° Northwest 398 458 40,000  Level Los Angeles Center
Wed 04:27:56 PM 35.1506 -119.1978 322° Northwest 400 460 40,000  Level Los Angeles Center
Wed 04:28:58 PM 35.2367 -119.2822 321° Northwest 400 460 40,000  Level Los Angeles Center
Wed 04:29:59 PM 35.3397 -119.3847 321° Northwest 400 460 40,000  Level Los Angeles Center
Wed 04:31:01 PM 35.4269 -119.4717 321° Northwest 402 463 40,000  Level Los Angeles Center
Wed 04:32:02 PM 35.5128 -119.5564 321° Northwest 400 460 40,000  Level Los Angeles Center
Wed 04:33:04 PM 35.5975 -119.6419 321° Northwest 397 457 40,000  Level Los Angeles Center
Wed 04:34:06 PM 35.6836 -119.7264 321° Northwest 397 457 40,000  Level Los Angeles Center
Wed 04:35:07 PM 35.7686 -119.8131 320° Northwest 399 459 40,000  Level Los Angeles Center
Wed 04:36:09 PM 35.8725 -119.9178 321° Northwest 403 464 40,000  Level Los Angeles Center
Wed 04:37:11 PM 35.9594 -120.0067 320° Northwest 406 467 40,000  Level Los Angeles Center
Wed 04:38:12 PM 36.0458 -120.0961 320° Northwest 406 467 40,000  Level Los Angeles Center
Wed 04:39:14 PM 36.1336 -120.1844 321° Northwest 408 470 40,000  Level Los Angeles Center
Wed 04:40:15 PM 36.2206 -120.2725 321° Northwest 406 467 40,000  Level Los Angeles Center
Wed 04:41:28 PM 36.3239 -120.3764 321° Northwest 405 466 40,000 -45 Level Oakland Center
Wed 04:42:29 PM 36.4103 -120.4656 320° Northwest 406 467 39,900 -1,475 Descending Oakland Center
Wed 04:43:30 PM 36.5131 -120.5692 321° Northwest 399 459 37,000 -3,049 Descending Oakland Center
Wed 04:44:31 PM 36.5992 -120.6569 321° Northwest 401 461 33,700 -3,393 Descending Oakland Center
Wed 04:45:32 PM 36.6878 -120.7508 320° Northwest 415 478 30,100 -3,393 Descending Oakland Center
Wed 04:46:33 PM 36.7764 -120.8447 320° Northwest 418 481 26,800 -3,049 Descending Oakland Center
Wed 04:47:34 PM 36.8569 -120.9414 316° Northwest 419 482 23,900 -2,852 Descending Oakland Center
Wed 04:48:35 PM 36.9411 -121.0378 318° Northwest 412 474 21,000 -2,852 Descending Oakland Center
Wed 04:49:36 PM 37.0222 -121.1319 317° Northwest 400 460 18,100 -2,754 Descending Oakland Center
Wed 04:50:37 PM 37.1014 -121.2228 318° Northwest 389 448 15,400 -2,705 Descending Oakland Center
Wed 04:51:38 PM 37.1783 -121.3103 318° Northwest 375 432 12,600 -2,361 Descending Oakland Center
Wed 04:52:39 PM 37.2522 -121.3956 317° Northwest 363 418 10,600 -1,279 Descending Oakland Center
Wed 04:53:40 PM 37.3222 -121.4794 316° Northwest 350 403 10,000 -295 Descending Oakland Center
Wed 04:54:41 PM 37.4006 -121.5689 318° Northwest 347 399 10,000  Level Oakland Center
Wed 04:55:42 PM 37.4625 -121.6594 311° West 348 400 10,000 -443 Level Oakland Center
Wed 04:56:43 PM 37.4967 -121.7522 295° West 297 342 9,100 -1,230 Descending Oakland Center
Wed 04:57:44 PM 37.5300 -121.8422 295° West 287 330 7,500 -1,525 Descending Oakland Center
Wed 04:58:45 PM 37.5614 -121.9308 294° West 280 322 6,000 -1,770 Descending Oakland Center
Wed 04:59:46 PM 37.5917 -122.0158 294° West 273 314 3,900 -1,721 Descending Oakland Center
Wed 05:00:47 PM 37.6228 -122.0847 300° West 243 280 2,500 -1,279 Descending Oakland Center
Wed 05:01:48 PM 37.6564 -122.1503 303° West 207 238 1,300 -942 Descending Oakland Center
Wed 05:02:48 PM 37.6828 -122.1856 313° West 162 186 600 9,273 Descending Oakland Center
Wed 05:03:49 PM 37.7061 -122.2208 310° West 144 166 20,000 19,082 Climbing Oakland Center
Wed 05:05:00 PM 37.7167 -122.2167 270° West  Level FlightAware Approximate
Wed 05:12:00 PM 37.7213 -122.2212 270° West  Level Estimated

Login

Don't have an account? Register now (free) for customized features, flight alerts, and more!